createdAt,value
2023-03-10T00:01:44.282Z,11.75
2023-03-10T00:12:06.373Z,11.83
2023-03-10T00:32:50.874Z,11.37
2023-03-10T00:43:12.443Z,11.00
2023-03-10T00:53:35.245Z,11.30
2023-03-10T01:03:59.728Z,10.73
2023-03-10T01:14:21.532Z,10.15
2023-03-10T01:24:43.023Z,9.60
2023-03-10T01:35:05.775Z,9.23
2023-03-10T01:45:27.224Z,9.02
2023-03-10T01:55:55.984Z,9.40
2023-03-10T02:06:20.061Z,9.35
2023-03-10T02:16:41.786Z,9.50
2023-03-10T02:27:27.093Z,9.68
2023-03-10T02:37:50.764Z,10.45
2023-03-10T02:48:16.286Z,11.25
2023-03-10T02:58:37.817Z,10.73
2023-03-10T03:08:59.417Z,10.23
2023-03-10T03:19:20.940Z,11.00
2023-03-10T03:29:42.422Z,10.63
2023-03-10T03:40:12.772Z,9.90
2023-03-10T03:50:34.348Z,9.70
2023-03-10T04:00:55.874Z,10.00
2023-03-10T04:11:17.422Z,10.17
2023-03-10T04:21:38.980Z,9.90
2023-03-10T04:32:05.576Z,11.60
2023-03-10T04:42:28.111Z,14.45
2023-03-10T04:52:50.199Z,15.90
2023-03-10T05:13:33.281Z,18.20
2023-03-10T05:23:54.784Z,17.07
2023-03-10T05:34:16.413Z,15.53
2023-03-10T05:44:38.897Z,14.87
2023-03-10T05:55:00.469Z,15.38
2023-03-10T06:05:21.994Z,14.93
2023-03-10T06:15:43.465Z,13.63
2023-03-10T06:26:12.020Z,13.40
2023-03-10T06:36:33.615Z,12.98
2023-03-10T06:46:55.121Z,12.67
2023-03-10T06:57:18.151Z,9.20
2023-03-10T07:07:41.567Z,13.35
2023-03-10T07:18:03.132Z,13.17
2023-03-10T07:28:25.796Z,14.47
2023-03-10T07:38:47.957Z,14.48
2023-03-10T07:49:09.635Z,13.40
2023-03-10T07:59:31.126Z,13.57
2023-03-10T08:09:53.280Z,13.47
2023-03-10T08:20:15.102Z,12.73
2023-03-10T08:30:52.479Z,13.15
2023-03-10T08:41:26.458Z,13.05
2023-03-10T08:51:49.476Z,12.30
2023-03-10T09:02:15.139Z,12.38
